Time;durP1;ratioP1;P1;durP2;ratioP2;P2;SDS_P1;SDS_P2;PMS_P1;PMS_P2;Temp;Humidity;BMP_temperature;BMP_pressure;BME280_temperature;BME280_humidity;BME280_pressure;Samples;Min_cycle;Max_cycle;Signal;HPM_P1;HPM_P2
2023/07/01 00:01:22;;;;;;;6.47;2.22;;;;;;;18.60;68.51;100593.91;5012131;28;20041;-76
2023/07/01 00:03:47;;;;;;;4.50;1.80;;;;;;;18.60;68.24;100591.28;5013355;28;20120;-75
2023/07/01 00:06:14;;;;;;;4.20;1.95;;;;;;;18.61;67.95;100582.38;5009316;28;20041;-75
2023/07/01 00:08:40;;;;;;;4.82;2.40;;;;;;;18.59;68.12;100577.34;5011478;28;20050;-75
2023/07/01 00:11:06;;;;;;;4.68;2.20;;;;;;;18.59;68.39;100576.53;5011273;28;20029;-74
2023/07/01 00:13:32;;;;;;;4.40;2.10;;;;;;;18.57;67.61;100578.56;5009299;28;20037;-76
2023/07/01 00:15:58;;;;;;;7.05;2.20;;;;;;;18.58;68.41;100573.13;5014311;28;20963;-76
2023/07/01 00:18:24;;;;;;;7.57;2.40;;;;;;;18.57;67.92;100575.94;5013264;28;20032;-75
2023/07/01 00:20:50;;;;;;;4.20;1.85;;;;;;;18.55;68.43;100570.13;5006057;28;20046;-75
2023/07/01 00:23:15;;;;;;;5.30;1.90;;;;;;;18.55;67.92;100563.03;5009085;28;20042;-75
2023/07/01 00:25:40;;;;;;;3.15;2.15;;;;;;;18.51;67.73;100561.84;5008142;28;20038;-76
2023/07/01 00:28:06;;;;;;;4.53;2.03;;;;;;;18.61;67.83;100561.38;5014927;28;20061;-74
2023/07/01 00:30:32;;;;;;;3.78;1.55;;;;;;;18.47;68.09;100556.22;5009996;28;20050;-75
2023/07/01 00:32:57;;;;;;;6.18;2.60;;;;;;;18.43;68.22;100556.88;5010005;28;20091;-75
2023/07/01 00:35:23;;;;;;;4.53;2.05;;;;;;;18.47;67.82;100552.81;5011515;28;20042;-76
2023/07/01 00:37:49;;;;;;;10.30;2.20;;;;;;;18.52;67.73;100552.97;5012953;28;20030;-76
2023/07/01 00:40:15;;;;;;;3.25;2.05;;;;;;;18.46;67.68;100546.75;5014814;28;20048;-75
2023/07/01 00:42:40;;;;;;;5.65;2.22;;;;;;;18.39;68.02;100545.22;5011994;28;20061;-75
2023/07/01 00:45:06;;;;;;;5.32;2.20;;;;;;;18.40;67.88;100539.75;5033478;28;20080;-74
2023/07/01 00:47:32;;;;;;;6.63;2.30;;;;;;;18.45;68.35;100541.72;4993394;28;20287;-77
2023/07/01 00:49:57;;;;;;;4.78;2.47;;;;;;;18.40;68.53;100537.13;5013284;28;20045;-75
2023/07/01 00:52:24;;;;;;;6.40;1.95;;;;;;;18.45;68.02;100533.84;5013535;28;20447;-75
2023/07/01 00:54:50;;;;;;;5.15;2.08;;;;;;;18.37;68.36;100531.50;5017443;28;20030;-74
2023/07/01 00:57:15;;;;;;;3.58;1.92;;;;;;;18.43;67.96;100528.00;5010383;28;20057;-79
2023/07/01 00:59:40;;;;;;;6.78;1.83;;;;;;;18.40;68.33;100524.00;4987929;28;20046;-74
2023/07/01 01:02:15;;;;;;;4.40;1.90;;;;;;;18.45;68.15;100526.75;5016913;28;20093;-74
2023/07/01 01:05:01;;;;;;;5.57;2.10;;;;;;;18.39;67.90;100519.75;5010436;28;20042;-74
2023/07/01 01:07:39;;;;;;;10.07;2.05;;;;;;;18.35;68.60;100523.84;5008322;28;20115;-74
2023/07/01 01:10:09;;;;;;;6.13;1.75;;;;;;;18.38;68.67;100512.09;5009740;28;20125;-75
2023/07/01 01:12:38;;;;;;;3.03;1.70;;;;;;;18.37;68.54;100505.25;5011149;28;20038;-75
2023/07/01 01:15:04;;;;;;;5.47;2.33;;;;;;;18.37;68.33;100506.03;4996404;28;20042;-75
2023/07/01 01:17:34;;;;;;;6.05;1.98;;;;;;;18.36;68.29;100501.00;5010645;28;20030;-76
2023/07/01 01:20:13;;;;;;;6.28;2.00;;;;;;;18.30;68.58;100494.78;5009553;28;20038;-75
2023/07/01 01:22:49;;;;;;;4.78;2.00;;;;;;;18.28;68.69;100488.97;4993966;28;20033;-74
2023/07/01 01:25:24;;;;;;;4.03;1.75;;;;;;;18.33;68.20;100490.94;5012786;28;20053;-75
2023/07/01 01:27:52;;;;;;;5.22;2.00;;;;;;;18.31;68.65;100493.78;5011965;28;20033;-74
2023/07/01 01:30:21;;;;;;;4.90;2.15;;;;;;;18.35;68.43;100488.91;5008760;28;20045;-75
2023/07/01 01:32:47;;;;;;;5.65;1.77;;;;;;;18.24;68.27;100479.91;4995074;28;20029;-75
2023/07/01 01:35:12;;;;;;;7.72;2.05;;;;;;;18.33;67.94;100475.19;5009509;28;20038;-76
2023/07/01 01:37:44;;;;;;;3.35;2.13;;;;;;;18.24;68.47;100479.91;5024112;28;20034;-74
2023/07/01 01:40:40;;;;;;;4.85;2.33;;;;;;;18.18;68.58;100475.53;5007275;28;20124;-75
2023/07/01 01:43:20;;;;;;;2.83;1.50;;;;;;;18.18;69.22;100465.03;4982607;28;20444;-74
2023/07/01 01:45:47;;;;;;;3.58;1.77;;;;;;;18.17;69.42;100468.66;4994428;28;20125;-74
2023/07/01 01:48:13;;;;;;;4.72;1.75;;;;;;;18.19;67.94;100467.41;5009928;28;20049;-75
2023/07/01 01:50:41;;;;;;;5.10;2.42;;;;;;;18.13;68.47;100460.41;4994411;28;20025;-74
2023/07/01 01:53:08;;;;;;;7.10;2.30;;;;;;;18.13;68.02;100460.41;5014490;28;20377;-74
2023/07/01 01:55:35;;;;;;;12.10;1.98;;;;;;;18.17;67.58;100458.16;5011940;28;20042;-73
2023/07/01 01:58:00;;;;;;;2.40;1.65;;;;;;;18.14;67.91;100453.34;4998963;28;20484;-74
2023/07/01 02:00:26;;;;;;;4.55;2.03;;;;;;;18.13;68.04;100451.75;5006527;28;20084;-74
2023/07/01 02:02:52;;;;;;;5.75;1.63;;;;;;;18.12;67.71;100453.56;5007850;28;23803;-73
2023/07/01 02:05:18;;;;;;;4.03;1.92;;;;;;;18.08;68.04;100447.13;5010091;28;20026;-73
2023/07/01 02:07:43;;;;;;;4.47;1.35;;;;;;;18.14;67.54;100442.84;5011106;28;20041;-74
2023/07/01 02:10:09;;;;;;;6.30;1.60;;;;;;;18.27;67.29;100429.59;5012467;28;20038;-72
2023/07/01 02:12:35;;;;;;;6.13;2.10;;;;;;;18.16;67.54;100436.38;5009303;28;20030;-76
2023/07/01 02:15:00;;;;;;;4.82;1.80;;;;;;;18.20;67.34;100429.69;5008143;28;20052;-73
2023/07/01 02:17:25;;;;;;;6.40;1.80;;;;;;;18.13;67.14;100425.50;5006772;28;20041;-73
2023/07/01 02:19:51;;;;;;;4.57;1.83;;;;;;;18.12;67.91;100426.50;5003679;28;20038;-75
2023/07/01 02:22:16;;;;;;;4.15;1.92;;;;;;;18.07;67.48;100430.59;5009257;28;20037;-73
2023/07/01 02:24:42;;;;;;;5.43;1.92;;;;;;;18.11;66.82;100430.97;5006946;28;20053;-73
2023/07/01 02:27:08;;;;;;;5.72;1.50;;;;;;;18.07;67.19;100427.16;5011099;28;20023;-73
2023/07/01 02:29:33;;;;;;;5.22;2.45;;;;;;;18.11;67.00;100422.31;5024114;28;20042;-73
2023/07/01 02:31:59;;;;;;;4.78;1.75;;;;;;;18.08;67.36;100420.88;5005675;28;20077;-72
2023/07/01 02:34:26;;;;;;;2.88;1.60;;;;;;;18.13;66.52;100423.69;5004992;28;20068;-73
2023/07/01 02:36:52;;;;;;;4.05;1.70;;;;;;;18.08;66.73;100419.09;4996482;28;20543;-73
2023/07/01 02:39:17;;;;;;;5.93;1.77;;;;;;;18.04;66.60;100427.59;5004322;28;20045;-74
2023/07/01 02:41:43;;;;;;;5.85;1.65;;;;;;;18.09;66.22;100419.88;5005640;28;20042;-73
2023/07/01 02:44:08;;;;;;;5.70;1.95;;;;;;;18.08;66.07;100416.47;5014374;28;20046;-74
2023/07/01 02:46:34;;;;;;;3.13;1.90;;;;;;;18.09;65.85;100417.25;5008923;28;20026;-74
2023/07/01 02:48:59;;;;;;;3.75;1.70;;;;;;;18.07;66.02;100421.91;5006231;28;20053;-74
2023/07/01 02:51:25;;;;;;;4.78;2.15;;;;;;;18.04;66.84;100420.50;5003057;28;20045;-74
2023/07/01 02:53:50;;;;;;;5.20;1.90;;;;;;;18.04;66.00;100427.59;4990920;28;20042;-73
2023/07/01 02:56:16;;;;;;;3.03;1.67;;;;;;;18.06;65.98;100426.38;5008348;28;20034;-73
2023/07/01 02:58:41;;;;;;;2.80;1.70;;;;;;;18.09;65.63;100415.44;5004964;28;20511;-73
2023/07/01 03:01:07;;;;;;;3.97;1.48;;;;;;;18.15;65.45;100411.16;5004029;28;20022;-74
2023/07/01 03:03:32;;;;;;;2.90;1.70;;;;;;;18.07;65.94;100412.22;5006776;28;20053;-73
2023/07/01 03:05:57;;;;;;;4.10;1.73;;;;;;;18.05;66.37;100422.13;5009049;28;20049;-77
2023/07/01 03:08:23;;;;;;;3.53;1.80;;;;;;;18.07;65.92;100411.44;5006024;28;20091;-74
2023/07/01 03:10:48;;;;;;;5.47;1.50;;;;;;;18.04;65.93;100409.22;5008259;28;20041;-73
2023/07/01 03:13:15;;;;;;;2.85;2.00;;;;;;;18.03;66.86;100413.69;4987876;28;20038;-74
2023/07/01 03:15:41;;;;;;;3.28;1.70;;;;;;;18.09;66.81;100412.00;5008008;28;20017;-73
2023/07/01 03:18:08;;;;;;;4.20;1.65;;;;;;;18.15;66.02;100400.66;5008531;28;20392;-77
2023/07/01 03:20:33;;;;;;;4.28;1.58;;;;;;;18.13;66.11;100394.81;5009498;28;20038;-73
2023/07/01 03:22:59;;;;;;;4.50;1.70;;;;;;;18.12;65.77;100397.66;5009498;28;20032;-75
2023/07/01 03:25:26;;;;;;;3.88;2.38;;;;;;;18.02;66.84;100388.44;5005689;28;20050;-72
2023/07/01 03:27:51;;;;;;;5.18;2.17;;;;;;;18.08;67.10;100384.16;5008210;28;20018;-73
2023/07/01 03:30:17;;;;;;;5.32;1.77;;;;;;;18.06;67.71;100391.44;5001929;28;20417;-73
2023/07/01 03:32:44;;;;;;;4.43;1.60;;;;;;;18.05;67.42;100388.03;5005675;28;20124;-72
2023/07/01 03:35:14;;;;;;;6.45;1.95;;;;;;;18.02;67.43;100383.19;5005435;28;20462;-72
2023/07/01 03:37:42;;;;;;;4.07;1.85;;;;;;;18.14;66.94;100383.31;5005871;28;20046;-74
2023/07/01 03:40:12;;;;;;;7.35;2.55;;;;;;;18.08;66.78;100390.22;5005633;28;20049;-74
2023/07/01 03:42:38;;;;;;;8.07;2.17;;;;;;;18.14;67.24;100393.81;5006915;28;20040;-73
2023/07/01 03:45:08;;;;;;;5.03;1.92;;;;;;;18.09;67.10;100381.31;5013923;28;20034;-72
2023/07/01 03:47:38;;;;;;;5.22;1.60;;;;;;;18.07;67.84;100386.00;5004104;28;20027;-73
2023/07/01 03:50:07;;;;;;;4.18;1.95;;;;;;;18.11;67.64;100377.69;5017288;28;20041;-72
2023/07/01 03:52:33;;;;;;;4.95;1.95;;;;;;;18.05;68.42;100372.28;5002822;28;20038;-73
2023/07/01 03:54:58;;;;;;;4.88;1.83;;;;;;;18.01;68.26;100372.94;5003656;28;20092;-76
2023/07/01 03:57:24;;;;;;;3.55;2.00;;;;;;;18.01;68.21;100360.63;4989340;28;20030;-72
2023/07/01 03:59:49;;;;;;;5.63;2.00;;;;;;;18.10;68.30;100361.13;5011583;28;20046;-75
2023/07/01 04:02:14;;;;;;;6.57;2.40;;;;;;;18.06;68.89;100354.72;5009723;28;20026;-76
2023/07/01 04:04:40;;;;;;;10.48;2.05;;;;;;;18.04;68.54;100359.38;5011757;28;20045;-72
2023/07/01 04:07:05;;;;;;;7.07;2.25;;;;;;;18.08;68.30;100355.31;5012249;28;20042;-72
2023/07/01 04:09:31;;;;;;;3.13;1.92;;;;;;;18.03;67.98;100353.34;5004704;28;20053;-73
2023/07/01 04:11:57;;;;;;;5.10;1.98;;;;;;;18.20;66.88;100350.97;5005590;28;20129;-73
2023/07/01 04:14:23;;;;;;;4.50;1.80;;;;;;;18.12;67.59;100345.19;5007633;28;20064;-73
2023/07/01 04:16:49;;;;;;;4.97;2.00;;;;;;;18.24;66.19;100349.50;5007153;28;20033;-73
2023/07/01 04:19:15;;;;;;;4.25;1.80;;;;;;;18.12;67.00;100345.19;5008739;28;20034;-74
2023/07/01 04:21:40;;;;;;;5.75;1.90;;;;;;;18.09;67.79;100335.94;5013618;28;20042;-72
2023/07/01 04:24:07;;;;;;;6.95;2.17;;;;;;;18.03;68.17;100342.06;5007651;28;20049;-72
2023/07/01 04:26:34;;;;;;;7.80;1.90;;;;;;;18.06;67.73;100333.72;5005468;28;20057;-73
2023/07/01 04:28:59;;;;;;;7.25;1.80;;;;;;;18.08;67.81;100332.53;5019981;28;20045;-73
2023/07/01 04:31:25;;;;;;;3.00;1.80;;;;;;;18.05;67.41;100334.78;5010490;28;20035;-74
2023/07/01 04:33:50;;;;;;;5.63;1.77;;;;;;;18.14;68.21;100332.66;5004365;28;20038;-73
2023/07/01 04:36:16;;;;;;;4.03;2.13;;;;;;;18.12;67.50;100332.06;5011065;28;20049;-73
2023/07/01 04:38:41;;;;;;;4.13;1.98;;;;;;;18.11;68.19;100322.59;5011649;28;20042;-74
2023/07/01 04:41:07;;;;;;;4.20;1.60;;;;;;;18.07;68.29;100330.91;5008938;28;20397;-72
2023/07/01 04:43:33;;;;;;;6.78;1.77;;;;;;;18.12;69.03;100325.03;5012420;28;20037;-72
2023/07/01 04:45:59;;;;;;;4.55;1.85;;;;;;;18.17;68.51;100322.53;5016127;28;20030;-73
2023/07/01 04:48:24;;;;;;;6.28;2.20;;;;;;;18.25;68.60;100318.81;4992596;28;20030;-75
2023/07/01 04:50:50;;;;;;;7.50;1.83;;;;;;;18.15;68.66;100318.53;5010753;28;20034;-74
2023/07/01 04:53:15;;;;;;;4.72;1.77;;;;;;;18.16;68.86;100314.88;4991448;28;20030;-73
2023/07/01 04:55:40;;;;;;;8.95;2.25;;;;;;;18.09;69.62;100326.25;5009326;28;20049;-73
2023/07/01 04:58:06;;;;;;;3.33;1.65;;;;;;;18.16;69.46;100327.97;5015035;28;20040;-74
2023/07/01 05:00:32;;;;;;;4.45;1.85;;;;;;;18.15;70.28;100323.78;5011584;28;20305;-72
2023/07/01 05:02:58;;;;;;;5.13;2.03;;;;;;;18.08;70.44;100323.81;5012589;28;20160;-76
2023/07/01 05:05:24;;;;;;;3.60;1.90;;;;;;;18.09;70.34;100321.00;5007551;28;20076;-73
2023/07/01 05:07:49;;;;;;;5.68;1.90;;;;;;;18.08;70.23;100314.16;5009794;28;20076;-72
2023/07/01 05:10:15;;;;;;;4.28;1.90;;;;;;;18.15;69.21;100316.69;5006946;28;20045;-74
2023/07/01 05:12:40;;;;;;;4.45;1.85;;;;;;;18.20;70.16;100310.81;5006312;28;20030;-78
2023/07/01 05:15:06;;;;;;;4.25;2.10;;;;;;;18.13;70.16;100310.88;5006194;28;20030;-73
2023/07/01 05:17:31;;;;;;;7.65;2.47;;;;;;;18.15;70.42;100310.66;5014379;28;20633;-74
2023/07/01 05:19:57;;;;;;;4.00;2.28;;;;;;;18.13;69.46;100310.88;4994205;28;20547;-75
2023/07/01 05:22:23;;;;;;;5.72;1.70;;;;;;;18.08;70.14;100313.34;5012043;28;20038;-73
2023/07/01 05:24:49;;;;;;;3.75;1.90;;;;;;;18.06;70.60;100310.94;5006074;28;20045;-73
2023/07/01 05:27:14;;;;;;;4.40;1.77;;;;;;;18.05;71.28;100317.19;5008506;28;20376;-74
2023/07/01 05:29:40;;;;;;;3.38;1.90;;;;;;;18.09;70.65;100317.56;5007614;28;20046;-73
2023/07/01 05:32:05;;;;;;;6.32;1.92;;;;;;;18.16;71.71;100314.88;5015050;28;20067;-76
2023/07/01 05:34:31;;;;;;;6.88;1.80;;;;;;;18.04;72.95;100312.97;5001878;28;20152;-75
2023/07/01 05:36:56;;;;;;;5.03;2.13;;;;;;;17.96;74.85;100318.50;5008733;28;20042;-73
2023/07/01 05:39:22;;;;;;;5.90;2.00;;;;;;;17.96;76.93;100318.50;4989887;28;20041;-75
2023/07/01 05:41:47;;;;;;;4.15;1.92;;;;;;;17.93;77.29;100312.88;5005935;28;20084;-76
2023/07/01 05:44:13;;;;;;;4.35;1.88;;;;;;;17.74;79.78;100310.19;5005427;28;20049;-75
2023/07/01 05:46:40;;;;;;;4.30;1.65;;;;;;;17.61;82.51;100313.75;5008624;28;20112;-74
2023/07/01 05:49:06;;;;;;;5.53;1.77;;;;;;;17.56;82.99;100318.03;5009452;28;20038;-78
2023/07/01 05:51:33;;;;;;;6.20;2.08;;;;;;;17.38;87.46;100313.50;5011026;28;20050;-82
2023/07/01 05:53:58;;;;;;;5.90;2.20;;;;;;;17.34;87.94;100307.09;5008991;28;20057;-80
2023/07/01 05:56:24;;;;;;;3.72;2.00;;;;;;;17.02;90.46;100312.31;5008997;28;20035;-78
2023/07/01 05:58:49;;;;;;;4.80;1.98;;;;;;;17.13;91.47;100309.81;4998695;28;20060;-76
2023/07/01 06:01:15;;;;;;;5.22;2.58;;;;;;;17.18;91.45;100313.63;5006564;28;20030;-77
2023/07/01 06:03:40;;;;;;;6.97;2.15;;;;;;;17.12;91.71;100304.78;5013622;28;20122;-76
2023/07/01 06:06:05;;;;;;;3.28;2.00;;;;;;;17.17;91.95;100304.16;5017253;28;20485;-80
2023/07/01 06:08:31;;;;;;;3.85;2.00;;;;;;;17.09;92.03;100305.22;5013220;28;20112;-78
2023/07/01 06:10:56;;;;;;;5.15;2.45;;;;;;;17.16;92.01;100308.63;5008395;28;20029;-76
2023/07/01 06:13:22;;;;;;;5.68;2.05;;;;;;;17.17;91.45;100309.41;4995282;28;20030;-77
2023/07/01 06:15:47;;;;;;;3.58;1.98;;;;;;;17.10;92.60;100312.06;5012494;28;20477;-78
2023/07/01 06:18:13;;;;;;;8.43;2.97;;;;;;;17.13;92.75;100301.97;5007101;28;20489;-77
2023/07/01 06:20:38;;;;;;;5.53;2.00;;;;;;;17.09;93.30;100310.47;5015730;28;20029;-78
2023/07/01 06:23:04;;;;;;;7.45;2.20;;;;;;;17.05;94.16;100298.81;5014367;28;20033;-76
2023/07/01 06:25:29;;;;;;;4.53;1.95;;;;;;;17.12;93.29;100297.75;4991314;28;21230;-77
2023/07/01 06:27:55;;;;;;;3.65;1.95;;;;;;;17.17;93.54;100306.78;5009902;28;20049;-78
2023/07/01 06:30:20;;;;;;;5.00;1.98;;;;;;;17.16;94.15;100299.94;5007064;28;20432;-77
2023/07/01 06:32:46;;;;;;;6.13;2.03;;;;;;;17.00;93.79;100307.28;4994319;28;20436;-77
2023/07/01 06:35:11;;;;;;;7.53;2.00;;;;;;;17.08;94.26;100301.00;5004814;28;20030;-79
2023/07/01 06:37:37;;;;;;;4.65;1.65;;;;;;;17.07;94.61;100296.78;4994742;28;20598;-78
2023/07/01 06:40:02;;;;;;;4.22;2.00;;;;;;;17.07;93.96;100294.16;4997959;28;20058;-77
2023/07/01 06:42:28;;;;;;;5.00;1.88;;;;;;;17.07;93.78;100294.16;5003811;28;20044;-78
2023/07/01 06:44:53;;;;;;;4.22;1.65;;;;;;;17.05;91.90;100285.72;4992098;28;20052;-74
2023/07/01 06:47:19;;;;;;;4.45;2.22;;;;;;;17.02;93.61;100276.44;4998547;28;20036;-74
2023/07/01 06:49:44;;;;;;;3.00;1.95;;;;;;;17.20;93.79;100283.59;4997141;28;20054;-77
2023/07/01 06:52:09;;;;;;;4.15;1.85;;;;;;;17.29;91.89;100277.09;5003929;28;20041;-74
2023/07/01 06:54:35;;;;;;;3.42;1.85;;;;;;;17.17;90.51;100277.97;5004898;28;20044;-74
2023/07/01 06:57:00;;;;;;;4.55;1.98;;;;;;;17.26;91.59;100279.31;5008295;28;20030;-75
2023/07/01 06:59:26;;;;;;;4.38;1.98;;;;;;;17.23;91.14;100279.75;5001832;28;20057;-75
2023/07/01 07:01:51;;;;;;;4.15;2.10;;;;;;;17.40;91.25;100286.06;5007922;28;20044;-76
2023/07/01 07:04:16;;;;;;;6.20;2.42;;;;;;;17.29;90.80;100277.09;5011138;28;20033;-72
2023/07/01 07:06:42;;;;;;;4.82;2.08;;;;;;;17.39;91.51;100279.22;5006230;28;20477;-77
2023/07/01 07:09:07;;;;;;;5.75;2.72;;;;;;;17.43;91.51;100276.97;5002054;28;20739;-74
2023/07/01 07:11:34;;;;;;;5.85;2.00;;;;;;;17.49;92.04;100282.16;5004599;28;20041;-75
2023/07/01 07:13:59;;;;;;;4.30;1.60;;;;;;;17.44;91.98;100276.78;5005774;28;20041;-72
2023/07/01 07:16:26;;;;;;;4.38;1.73;;;;;;;17.50;91.18;100272.50;5011855;28;20404;-75
2023/07/01 07:18:52;;;;;;;5.13;2.10;;;;;;;17.55;90.36;100270.00;5008377;28;20697;-73
2023/07/01 07:21:17;;;;;;;3.90;1.70;;;;;;;17.37;90.70;100272.59;5012926;28;20022;-77
2023/07/01 07:23:43;;;;;;;3.80;2.10;;;;;;;17.56;91.16;100270.84;5004611;28;20512;-74
2023/07/01 07:26:08;;;;;;;3.38;2.17;;;;;;;17.56;91.73;100273.47;5005508;28;20515;-74
2023/07/01 07:28:35;;;;;;;5.72;1.70;;;;;;;17.66;92.04;100279.00;5006037;28;20042;-73
2023/07/01 07:31:00;;;;;;;2.45;1.65;;;;;;;17.66;91.56;100266.69;5007382;28;20038;-79
2023/07/01 07:33:26;;;;;;;3.50;1.73;;;;;;;17.61;90.92;100265.72;5003837;28;20041;-73
2023/07/01 07:35:51;;;;;;;5.45;2.63;;;;;;;17.70;92.35;100267.06;5006003;28;20029;-74
2023/07/01 07:38:17;;;;;;;5.05;1.90;;;;;;;17.74;91.55;100262.19;5004503;28;20053;-74
2023/07/01 07:40:43;;;;;;;6.95;1.77;;;;;;;17.78;91.79;100256.31;5024892;28;20034;-73
2023/07/01 07:43:10;;;;;;;5.72;1.60;;;;;;;17.86;92.04;100263.94;5008779;28;20060;-75
2023/07/01 07:45:35;;;;;;;2.80;1.60;;;;;;;17.96;91.61;100255.56;5004469;28;20054;-73
2023/07/01 07:48:01;;;;;;;3.72;1.17;;;;;;;17.94;90.27;100254.19;5006883;28;20435;-76
2023/07/01 07:50:26;;;;;;;6.78;1.80;;;;;;;17.91;90.77;100260.63;5008390;28;20049;-77
2023/07/01 07:52:52;;;;;;;2.58;1.60;;;;;;;17.97;91.53;100259.78;4993639;28;20021;-75
2023/07/01 07:55:17;;;;;;;3.78;1.50;;;;;;;17.85;92.20;100261.50;5009434;28;20037;-75
2023/07/01 07:57:43;;;;;;;6.63;1.60;;;;;;;18.00;92.55;100256.72;5000521;28;20569;-73
2023/07/01 08:00:10;;;;;;;4.20;1.10;;;;;;;18.02;92.90;100253.88;5005899;28;20061;-73
2023/07/01 08:02:44;;;;;;;3.40;1.23;;;;;;;18.03;92.39;100252.88;5009986;28;20038;-78
2023/07/01 08:05:14;;;;;;;3.47;1.45;;;;;;;18.08;92.92;100253.81;5021810;28;20065;-75
2023/07/01 08:07:39;;;;;;;2.95;1.23;;;;;;;18.22;91.85;100262.34;5008153;28;20055;-75
2023/07/01 08:10:06;;;;;;;2.22;1.30;;;;;;;18.13;91.84;100268.88;5016065;28;20497;-76
2023/07/01 08:12:32;;;;;;;6.07;1.75;;;;;;;18.00;92.11;100263.78;5007388;28;20089;-77
2023/07/01 08:14:57;;;;;;;2.22;1.10;;;;;;;17.92;95.80;100259.63;5015498;28;20171;-76
2023/07/01 08:17:23;;;;;;;1.48;0.90;;;;;;;17.89;95.61;100260.06;5010636;28;20045;-74
2023/07/01 08:19:48;;;;;;;3.40;1.00;;;;;;;17.75;98.10;100263.81;5010916;28;20046;-74
2023/07/01 08:22:14;;;;;;;2.20;1.08;;;;;;;17.82;98.55;100262.72;5015863;28;20037;-79
2023/07/01 08:24:39;;;;;;;2.13;1.30;;;;;;;17.79;100.00;100263.16;5012464;28;20048;-76
2023/07/01 08:27:05;;;;;;;2.55;0.77;;;;;;;17.79;100.00;100259.72;5013426;28;20029;-75
2023/07/01 08:29:30;;;;;;;4.05;1.15;;;;;;;17.70;100.00;100264.44;5010380;28;20515;-78
2023/07/01 08:31:56;;;;;;;2.38;0.88;;;;;;;17.68;100.00;100266.47;5013544;28;20037;-75
2023/07/01 08:34:21;;;;;;;1.30;0.88;;;;;;;17.63;100.00;100261.06;4988603;28;20057;-79
2023/07/01 08:36:47;;;;;;;2.15;1.10;;;;;;;17.56;100.00;100263.78;5008798;28;20079;-76
2023/07/01 08:39:12;;;;;;;3.78;0.90;;;;;;;17.48;100.00;100250.94;5012280;28;20050;-76
2023/07/01 08:41:45;;;;;;;2.17;1.05;;;;;;;17.35;100.00;100248.41;5015435;28;20034;-76
2023/07/01 08:44:11;;;;;;;3.17;0.98;;;;;;;17.36;100.00;100244.78;5011265;28;20412;-77
2023/07/01 08:46:40;;;;;;;1.60;0.90;;;;;;;17.38;100.00;100243.53;5013121;28;20034;-77
2023/07/01 08:49:07;;;;;;;3.45;1.05;;;;;;;17.51;100.00;100240.00;5009653;28;20034;-79
2023/07/01 08:51:40;;;;;;;3.47;1.10;;;;;;;17.70;100.00;100238.22;5011122;28;20135;-78
2023/07/01 08:54:07;;;;;;;1.23;0.90;;;;;;;17.88;100.00;100242.72;5010013;28;20046;-78
2023/07/01 08:56:33;;;;;;;1.25;1.00;;;;;;;18.02;100.00;100241.56;5007530;28;20192;-77
2023/07/01 08:58:59;;;;;;;2.58;1.10;;;;;;;18.22;100.00;100241.34;5014866;28;20041;-77
2023/07/01 09:01:24;;;;;;;2.03;0.80;;;;;;;18.21;100.00;100229.22;5012478;28;20037;-78
2023/07/01 09:03:50;;;;;;;0.98;0.70;;;;;;;18.28;100.00;100229.16;5010249;28;20058;-77
2023/07/01 09:06:15;;;;;;;2.15;1.08;;;;;;;18.28;100.00;100227.34;5010811;28;20029;-77
2023/07/01 09:08:41;;;;;;;1.35;0.90;;;;;;;18.19;100.00;100233.91;5006697;28;20561;-77
2023/07/01 09:11:12;;;;;;;1.45;0.80;;;;;;;18.20;100.00;100218.97;5008039;28;20038;-77
2023/07/01 09:13:37;;;;;;;3.15;1.02;;;;;;;18.11;100.00;100222.91;5007107;28;20125;-78
2023/07/01 09:16:03;;;;;;;2.38;0.75;;;;;;;18.09;100.00;100225.75;5007926;28;20108;-81
2023/07/01 09:18:29;;;;;;;1.33;0.80;;;;;;;18.11;100.00;100221.09;5007868;28;20037;-75
2023/07/01 09:20:55;;;;;;;1.67;0.88;;;;;;;18.15;100.00;100224.06;5009284;28;20018;-76
2023/07/01 09:23:25;;;;;;;1.20;0.70;;;;;;;18.15;100.00;100227.50;5008705;28;20528;-77
2023/07/01 09:25:50;;;;;;;4.45;0.70;;;;;;;18.05;100.00;100220.16;5009437;28;20036;-75
2023/07/01 09:28:29;;;;;;;1.38;0.43;;;;;;;17.92;100.00;100228.16;5009555;28;20041;-77
2023/07/01 09:30:59;;;;;;;1.15;0.50;;;;;;;17.90;100.00;100222.34;5009892;28;20030;-73
2023/07/01 09:33:24;;;;;;;4.47;1.70;;;;;;;17.91;100.00;100229.16;4991796;28;20052;-75
2023/07/01 09:35:55;;;;;;;3.70;0.55;;;;;;;18.02;100.00;100228.44;5008312;28;20030;-80
2023/07/01 09:38:21;;;;;;;0.70;0.40;;;;;;;17.87;100.00;100223.56;5008805;28;21852;-78
2023/07/01 09:40:46;;;;;;;2.60;0.30;;;;;;;17.85;100.00;100225.59;5007946;28;20034;-76
2023/07/01 09:43:12;;;;;;;1.88;0.50;;;;;;;18.02;100.00;100217.94;5007099;28;20044;-76
2023/07/01 09:45:51;;;;;;;0.60;0.40;;;;;;;18.12;100.00;100222.72;5007657;28;20026;-77
2023/07/01 09:48:18;;;;;;;0.50;0.50;;;;;;;18.08;100.00;100217.09;5027787;28;20615;-76
2023/07/01 09:50:44;;;;;;;0.40;0.40;;;;;;;18.13;100.00;100210.38;5009407;28;20159;-76
2023/07/01 09:53:21;;;;;;;1.00;0.40;;;;;;;18.17;100.00;100206.28;5012007;28;20033;-79
2023/07/01 09:55:48;;;;;;;1.70;0.47;;;;;;;18.31;100.00;100206.91;5021539;28;20132;-74
2023/07/01 09:58:14;;;;;;;4.15;0.70;;;;;;;18.31;100.00;100209.53;5012374;28;20038;-79
2023/07/01 10:00:40;;;;;;;0.60;0.57;;;;;;;18.32;100.00;100211.16;5022510;28;20087;-74
2023/07/01 10:03:07;;;;;;;1.98;0.40;;;;;;;18.32;100.00;100206.72;5009544;28;20034;-77
2023/07/01 10:05:34;;;;;;;0.75;0.57;;;;;;;18.19;100.00;100201.63;5005527;28;20083;-76
2023/07/01 10:07:59;;;;;;;0.57;0.40;;;;;;;18.31;100.00;100197.25;5012064;28;20108;-77
2023/07/01 10:10:25;;;;;;;0.50;0.50;;;;;;;18.32;100.00;100200.66;5016096;28;20084;-75
2023/07/01 10:12:52;;;;;;;0.95;0.32;;;;;;;18.32;100.00;100193.59;5010619;28;20026;-77
2023/07/01 10:15:26;;;;;;;2.08;0.47;;;;;;;18.15;100.00;100197.84;5011226;28;20061;-81
2023/07/01 10:17:52;;;;;;;0.30;0.30;;;;;;;18.28;100.00;100195.06;4994640;28;20120;-77
2023/07/01 10:20:31;;;;;;;2.63;0.50;;;;;;;18.28;100.00;100185.34;5009738;28;20042;-76
2023/07/01 10:23:01;;;;;;;0.30;0.30;;;;;;;18.32;100.00;100192.78;5009585;28;20057;-77
2023/07/01 10:25:38;;;;;;;1.20;0.60;;;;;;;18.24;100.00;100181.56;4996120;28;20071;-78
2023/07/01 10:28:04;;;;;;;1.67;0.50;;;;;;;18.44;100.00;100183.94;5014258;28;20053;-77
2023/07/01 10:30:45;;;;;;;1.23;0.40;;;;;;;18.41;100.00;100188.84;5009447;28;20057;-79
2023/07/01 10:33:35;;;;;;;1.30;0.50;;;;;;;18.40;100.00;100195.09;5016322;28;20046;-80
2023/07/01 10:36:09;;;;;;;3.53;0.60;;;;;;;18.32;100.00;100193.59;4998769;28;20523;-82
2023/07/01 10:38:36;;;;;;;1.08;0.60;;;;;;;18.27;100.00;100186.38;5008591;28;20046;-78
2023/07/01 10:41:02;;;;;;;2.53;0.47;;;;;;;18.31;100.00;100185.94;4998011;28;20041;-77
2023/07/01 10:43:36;;;;;;;0.57;0.50;;;;;;;18.41;100.00;100184.38;5010579;28;20041;-80
2023/07/01 10:46:12;;;;;;;0.90;0.40;;;;;;;18.46;100.00;100183.72;5024830;28;20077;-76
2023/07/01 10:48:42;;;;;;;1.73;0.73;;;;;;;18.43;100.00;100179.72;5010041;28;20117;-78
2023/07/01 10:51:12;;;;;;;0.82;0.82;;;;;;;18.56;100.00;100181.34;5026369;28;20037;-76
2023/07/01 10:54:00;;;;;;;0.65;0.40;;;;;;;18.62;100.00;100190.16;4990653;28;20045;-75
2023/07/01 10:56:31;;;;;;;0.47;0.38;;;;;;;18.59;100.00;100180.91;5010120;28;20038;-76
2023/07/01 10:59:21;;;;;;;1.33;0.77;;;;;;;18.67;100.00;100177.97;5005670;28;20039;-79
2023/07/01 11:01:51;;;;;;;8.90;1.63;;;;;;;18.82;100.00;100177.56;5006462;28;20030;-76
2023/07/01 11:04:18;;;;;;;0.88;0.50;;;;;;;18.74;100.00;100177.88;5004539;28;20126;-77
2023/07/01 11:06:52;;;;;;;1.38;0.50;;;;;;;18.75;100.00;100176.84;5007864;28;20033;-77
2023/07/01 11:09:34;;;;;;;1.70;0.60;;;;;;;18.80;100.00;100169.13;5004136;28;20091;-78
2023/07/01 11:12:03;;;;;;;1.27;0.40;;;;;;;18.77;100.00;100166.13;5007219;28;20534;-75
2023/07/01 11:14:38;;;;;;;2.58;0.60;;;;;;;18.69;100.00;100167.25;5008981;28;20050;-74
2023/07/01 11:17:09;;;;;;;2.50;0.60;;;;;;;18.72;100.00;100158.09;5007265;28;20057;-75
2023/07/01 11:19:35;;;;;;;3.25;0.60;;;;;;;18.86;100.00;100157.72;5015211;28;20060;-76
2023/07/01 11:22:01;;;;;;;1.42;0.68;;;;;;;18.98;100.00;100162.19;5010371;28;20144;-78